sensor_id;sensor_type;location;lat;lon;timestamp;P1;durP1;ratioP1;P2;durP2;ratioP2
37841;SDS011;23682;53.508;10.476;2022-09-23T00:01:09;2.38;;;0.77;;
37841;SDS011;23682;53.508;10.476;2022-09-23T00:03:38;2.08;;;1.10;;
37841;SDS011;23682;53.508;10.476;2022-09-23T00:06:08;0.88;;;0.60;;
37841;SDS011;23682;53.508;10.476;2022-09-23T00:08:51;0.93;;;0.70;;
37841;SDS011;23682;53.508;10.476;2022-09-23T00:11:22;1.80;;;0.80;;
37841;SDS011;23682;53.508;10.476;2022-09-23T00:13:58;1.38;;;0.95;;
37841;SDS011;23682;53.508;10.476;2022-09-23T00:16:30;1.33;;;0.82;;
37841;SDS011;23682;53.508;10.476;2022-09-23T00:19:00;1.23;;;0.85;;
37841;SDS011;23682;53.508;10.476;2022-09-23T00:21:28;1.08;;;0.80;;
37841;SDS011;23682;53.508;10.476;2022-09-23T00:23:55;3.47;;;1.20;;
37841;SDS011;23682;53.508;10.476;2022-09-23T00:26:27;0.70;;;0.70;;
37841;SDS011;23682;53.508;10.476;2022-09-23T00:28:54;0.98;;;0.88;;
37841;SDS011;23682;53.508;10.476;2022-09-23T00:31:22;0.75;;;0.73;;
37841;SDS011;23682;53.508;10.476;2022-09-23T00:33:54;0.80;;;0.70;;
37841;SDS011;23682;53.508;10.476;2022-09-23T00:36:23;0.70;;;0.70;;
37841;SDS011;23682;53.508;10.476;2022-09-23T00:38:53;1.23;;;0.80;;
37841;SDS011;23682;53.508;10.476;2022-09-23T00:41:26;1.08;;;0.88;;
37841;SDS011;23682;53.508;10.476;2022-09-23T00:43:57;1.80;;;0.80;;
37841;SDS011;23682;53.508;10.476;2022-09-23T00:46:31;2.15;;;0.80;;
37841;SDS011;23682;53.508;10.476;2022-09-23T00:49:04;1.17;;;0.95;;
37841;SDS011;23682;53.508;10.476;2022-09-23T00:51:36;1.50;;;1.00;;
37841;SDS011;23682;53.508;10.476;2022-09-23T00:54:09;2.63;;;0.88;;
37841;SDS011;23682;53.508;10.476;2022-09-23T00:56:36;1.25;;;0.88;;
37841;SDS011;23682;53.508;10.476;2022-09-23T00:59:05;1.20;;;0.90;;
37841;SDS011;23682;53.508;10.476;2022-09-23T01:01:35;1.55;;;0.80;;
37841;SDS011;23682;53.508;10.476;2022-09-23T01:04:03;1.20;;;0.95;;
37841;SDS011;23682;53.508;10.476;2022-09-23T01:06:33;1.45;;;1.10;;
37841;SDS011;23682;53.508;10.476;2022-09-23T01:09:00;2.38;;;1.00;;
37841;SDS011;23682;53.508;10.476;2022-09-23T01:20:04;0.80;;;0.80;;
37841;SDS011;23682;53.508;10.476;2022-09-23T01:29:01;1.52;;;0.90;;
37841;SDS011;23682;53.508;10.476;2022-09-23T01:34:32;2.83;;;0.85;;
37841;SDS011;23682;53.508;10.476;2022-09-23T01:37:13;1.15;;;0.85;;
37841;SDS011;23682;53.508;10.476;2022-09-23T01:40:06;1.33;;;0.90;;
37841;SDS011;23682;53.508;10.476;2022-09-23T01:42:46;3.17;;;0.82;;
37841;SDS011;23682;53.508;10.476;2022-09-23T01:45:33;1.17;;;0.90;;
37841;SDS011;23682;53.508;10.476;2022-09-23T01:48:20;1.50;;;0.95;;
37841;SDS011;23682;53.508;10.476;2022-09-23T01:51:04;0.73;;;0.73;;
37841;SDS011;23682;53.508;10.476;2022-09-23T01:56:36;1.00;;;0.90;;
37841;SDS011;23682;53.508;10.476;2022-09-23T02:02:25;1.42;;;0.77;;
37841;SDS011;23682;53.508;10.476;2022-09-23T02:05:01;1.60;;;1.02;;
37841;SDS011;23682;53.508;10.476;2022-09-23T02:10:46;1.25;;;0.82;;
37841;SDS011;23682;53.508;10.476;2022-09-23T02:13:18;1.10;;;1.00;;
37841;SDS011;23682;53.508;10.476;2022-09-23T02:15:56;2.15;;;1.10;;
37841;SDS011;23682;53.508;10.476;2022-09-23T02:18:32;4.32;;;0.90;;
37841;SDS011;23682;53.508;10.476;2022-09-23T02:21:09;1.70;;;0.98;;
37841;SDS011;23682;53.508;10.476;2022-09-23T02:23:41;1.58;;;0.93;;
37841;SDS011;23682;53.508;10.476;2022-09-23T02:26:22;1.08;;;0.80;;
37841;SDS011;23682;53.508;10.476;2022-09-23T02:31:40;1.33;;;0.80;;
37841;SDS011;23682;53.508;10.476;2022-09-23T02:40:04;3.55;;;0.90;;
37841;SDS011;23682;53.508;10.476;2022-09-23T02:45:39;1.45;;;0.90;;
37841;SDS011;23682;53.508;10.476;2022-09-23T02:48:19;1.20;;;1.10;;
37841;SDS011;23682;53.508;10.476;2022-09-23T02:50:50;0.80;;;0.80;;
37841;SDS011;23682;53.508;10.476;2022-09-23T02:53:18;1.20;;;1.00;;
37841;SDS011;23682;53.508;10.476;2022-09-23T02:55:48;1.17;;;1.00;;
37841;SDS011;23682;53.508;10.476;2022-09-23T02:58:16;1.40;;;1.08;;
37841;SDS011;23682;53.508;10.476;2022-09-23T03:06:32;2.08;;;1.02;;
37841;SDS011;23682;53.508;10.476;2022-09-23T03:09:07;1.20;;;1.05;;
37841;SDS011;23682;53.508;10.476;2022-09-23T03:15:00;1.23;;;1.10;;
37841;SDS011;23682;53.508;10.476;2022-09-23T03:17:59;1.73;;;1.00;;
37841;SDS011;23682;53.508;10.476;2022-09-23T03:20:57;1.52;;;1.02;;
37841;SDS011;23682;53.508;10.476;2022-09-23T03:23:30;1.50;;;0.95;;
37841;SDS011;23682;53.508;10.476;2022-09-23T03:26:10;2.55;;;0.90;;
37841;SDS011;23682;53.508;10.476;2022-09-23T03:28:44;1.67;;;1.15;;
37841;SDS011;23682;53.508;10.476;2022-09-23T03:31:15;1.10;;;1.00;;
37841;SDS011;23682;53.508;10.476;2022-09-23T03:33:49;4.97;;;1.00;;
37841;SDS011;23682;53.508;10.476;2022-09-23T03:36:25;2.63;;;1.13;;
37841;SDS011;23682;53.508;10.476;2022-09-23T03:41:49;1.88;;;1.05;;
37841;SDS011;23682;53.508;10.476;2022-09-23T03:44:20;2.05;;;1.17;;
37841;SDS011;23682;53.508;10.476;2022-09-23T03:46:47;1.50;;;1.00;;
37841;SDS011;23682;53.508;10.476;2022-09-23T03:49:24;1.35;;;1.10;;
37841;SDS011;23682;53.508;10.476;2022-09-23T03:51:58;1.38;;;0.90;;
37841;SDS011;23682;53.508;10.476;2022-09-23T03:54:27;1.10;;;1.00;;
37841;SDS011;23682;53.508;10.476;2022-09-23T03:56:55;1.48;;;0.80;;
37841;SDS011;23682;53.508;10.476;2022-09-23T03:59:24;1.30;;;0.93;;
37841;SDS011;23682;53.508;10.476;2022-09-23T04:01:51;1.52;;;1.00;;
37841;SDS011;23682;53.508;10.476;2022-09-23T04:04:19;1.67;;;0.95;;
37841;SDS011;23682;53.508;10.476;2022-09-23T04:06:48;18.48;;;2.25;;
37841;SDS011;23682;53.508;10.476;2022-09-23T04:09:15;2.20;;;1.10;;
37841;SDS011;23682;53.508;10.476;2022-09-23T04:11:42;4.80;;;1.10;;
37841;SDS011;23682;53.508;10.476;2022-09-23T04:14:09;1.30;;;1.05;;
37841;SDS011;23682;53.508;10.476;2022-09-23T04:16:39;1.50;;;1.10;;
37841;SDS011;23682;53.508;10.476;2022-09-23T04:19:07;1.27;;;0.93;;
37841;SDS011;23682;53.508;10.476;2022-09-23T04:21:39;5.25;;;0.93;;
37841;SDS011;23682;53.508;10.476;2022-09-23T04:24:07;2.20;;;1.15;;
37841;SDS011;23682;53.508;10.476;2022-09-23T04:26:35;1.92;;;1.13;;
37841;SDS011;23682;53.508;10.476;2022-09-23T04:29:05;3.47;;;0.90;;
37841;SDS011;23682;53.508;10.476;2022-09-23T04:31:33;1.13;;;0.93;;
37841;SDS011;23682;53.508;10.476;2022-09-23T04:34:00;1.58;;;1.20;;
37841;SDS011;23682;53.508;10.476;2022-09-23T04:36:27;1.27;;;1.10;;
37841;SDS011;23682;53.508;10.476;2022-09-23T04:38:55;1.67;;;0.82;;
37841;SDS011;23682;53.508;10.476;2022-09-23T04:41:22;2.15;;;1.00;;
37841;SDS011;23682;53.508;10.476;2022-09-23T04:43:52;1.83;;;1.08;;
37841;SDS011;23682;53.508;10.476;2022-09-23T04:46:28;2.55;;;1.20;;
37841;SDS011;23682;53.508;10.476;2022-09-23T04:48:55;2.58;;;1.02;;
37841;SDS011;23682;53.508;10.476;2022-09-23T04:51:23;1.00;;;0.90;;
37841;SDS011;23682;53.508;10.476;2022-09-23T04:53:51;1.38;;;0.95;;
37841;SDS011;23682;53.508;10.476;2022-09-23T04:56:20;1.27;;;1.08;;
37841;SDS011;23682;53.508;10.476;2022-09-23T04:58:49;1.55;;;1.00;;
37841;SDS011;23682;53.508;10.476;2022-09-23T05:01:17;2.65;;;0.90;;
37841;SDS011;23682;53.508;10.476;2022-09-23T05:06:24;2.50;;;1.10;;
37841;SDS011;23682;53.508;10.476;2022-09-23T05:08:52;1.13;;;0.95;;
37841;SDS011;23682;53.508;10.476;2022-09-23T05:11:26;1.92;;;1.20;;
37841;SDS011;23682;53.508;10.476;2022-09-23T05:13:55;4.07;;;1.20;;
37841;SDS011;23682;53.508;10.476;2022-09-23T05:16:23;1.92;;;1.40;;
37841;SDS011;23682;53.508;10.476;2022-09-23T05:18:50;2.72;;;1.20;;
37841;SDS011;23682;53.508;10.476;2022-09-23T05:21:19;3.08;;;1.30;;
37841;SDS011;23682;53.508;10.476;2022-09-23T05:23:52;2.17;;;1.42;;
37841;SDS011;23682;53.508;10.476;2022-09-23T05:28:52;1.88;;;1.27;;
37841;SDS011;23682;53.508;10.476;2022-09-23T05:31:27;1.10;;;1.00;;
37841;SDS011;23682;53.508;10.476;2022-09-23T05:33:59;2.78;;;1.48;;
37841;SDS011;23682;53.508;10.476;2022-09-23T05:36:28;1.88;;;1.58;;
37841;SDS011;23682;53.508;10.476;2022-09-23T05:39:04;1.73;;;1.33;;
37841;SDS011;23682;53.508;10.476;2022-09-23T05:41:32;1.83;;;1.20;;
37841;SDS011;23682;53.508;10.476;2022-09-23T05:43:59;1.60;;;1.20;;
37841;SDS011;23682;53.508;10.476;2022-09-23T05:46:27;2.38;;;1.10;;
37841;SDS011;23682;53.508;10.476;2022-09-23T05:48:56;2.25;;;1.20;;
37841;SDS011;23682;53.508;10.476;2022-09-23T05:51:32;1.25;;;1.10;;
37841;SDS011;23682;53.508;10.476;2022-09-23T05:54:01;1.85;;;1.30;;
37841;SDS011;23682;53.508;10.476;2022-09-23T05:56:30;1.67;;;1.27;;
37841;SDS011;23682;53.508;10.476;2022-09-23T05:59:00;2.78;;;1.40;;
37841;SDS011;23682;53.508;10.476;2022-09-23T06:01:28;1.98;;;1.20;;
37841;SDS011;23682;53.508;10.476;2022-09-23T06:03:59;1.55;;;1.05;;
37841;SDS011;23682;53.508;10.476;2022-09-23T06:06:28;1.88;;;1.05;;
37841;SDS011;23682;53.508;10.476;2022-09-23T06:08:57;1.38;;;1.17;;
37841;SDS011;23682;53.508;10.476;2022-09-23T06:11:28;1.48;;;1.17;;
37841;SDS011;23682;53.508;10.476;2022-09-23T06:13:57;1.40;;;1.25;;
37841;SDS011;23682;53.508;10.476;2022-09-23T06:16:29;1.35;;;1.17;;
37841;SDS011;23682;53.508;10.476;2022-09-23T06:18:58;1.13;;;1.00;;
37841;SDS011;23682;53.508;10.476;2022-09-23T06:21:35;2.95;;;1.65;;
37841;SDS011;23682;53.508;10.476;2022-09-23T06:24:04;2.95;;;1.50;;
37841;SDS011;23682;53.508;10.476;2022-09-23T06:26:35;4.82;;;2.42;;
37841;SDS011;23682;53.508;10.476;2022-09-23T06:29:07;6.80;;;3.25;;
37841;SDS011;23682;53.508;10.476;2022-09-23T06:31:41;10.70;;;5.50;;
37841;SDS011;23682;53.508;10.476;2022-09-23T06:34:09;9.57;;;4.80;;
37841;SDS011;23682;53.508;10.476;2022-09-23T06:36:40;4.25;;;2.85;;
37841;SDS011;23682;53.508;10.476;2022-09-23T06:39:12;4.60;;;2.20;;
37841;SDS011;23682;53.508;10.476;2022-09-23T06:41:40;3.08;;;1.90;;
37841;SDS011;23682;53.508;10.476;2022-09-23T06:44:11;2.38;;;1.60;;
37841;SDS011;23682;53.508;10.476;2022-09-23T06:46:39;1.52;;;1.23;;
37841;SDS011;23682;53.508;10.476;2022-09-23T06:49:06;2.08;;;1.23;;
37841;SDS011;23682;53.508;10.476;2022-09-23T06:51:33;1.83;;;1.15;;
37841;SDS011;23682;53.508;10.476;2022-09-23T06:54:00;2.40;;;1.20;;
37841;SDS011;23682;53.508;10.476;2022-09-23T06:56:28;2.67;;;1.30;;
37841;SDS011;23682;53.508;10.476;2022-09-23T06:59:00;1.38;;;1.13;;
37841;SDS011;23682;53.508;10.476;2022-09-23T07:01:26;3.22;;;1.35;;
37841;SDS011;23682;53.508;10.476;2022-09-23T07:03:54;2.33;;;1.42;;
37841;SDS011;23682;53.508;10.476;2022-09-23T07:06:21;6.82;;;1.40;;
37841;SDS011;23682;53.508;10.476;2022-09-23T07:08:48;2.05;;;1.05;;
37841;SDS011;23682;53.508;10.476;2022-09-23T07:11:16;4.53;;;1.38;;
37841;SDS011;23682;53.508;10.476;2022-09-23T07:13:48;1.27;;;1.17;;
37841;SDS011;23682;53.508;10.476;2022-09-23T07:16:16;1.92;;;1.27;;
37841;SDS011;23682;53.508;10.476;2022-09-23T07:18:43;3.60;;;1.20;;
37841;SDS011;23682;53.508;10.476;2022-09-23T07:21:12;4.07;;;1.52;;
37841;SDS011;23682;53.508;10.476;2022-09-23T07:23:41;4.80;;;1.73;;
37841;SDS011;23682;53.508;10.476;2022-09-23T07:26:09;4.85;;;1.63;;
37841;SDS011;23682;53.508;10.476;2022-09-23T07:28:36;3.83;;;1.30;;
37841;SDS011;23682;53.508;10.476;2022-09-23T07:31:05;2.58;;;1.42;;
37841;SDS011;23682;53.508;10.476;2022-09-23T07:33:35;3.08;;;1.30;;
37841;SDS011;23682;53.508;10.476;2022-09-23T07:36:04;3.17;;;1.40;;
37841;SDS011;23682;53.508;10.476;2022-09-23T07:38:37;2.10;;;1.20;;
37841;SDS011;23682;53.508;10.476;2022-09-23T07:41:11;1.83;;;1.20;;
37841;SDS011;23682;53.508;10.476;2022-09-23T07:43:40;1.90;;;1.35;;
37841;SDS011;23682;53.508;10.476;2022-09-23T07:46:11;6.28;;;2.25;;
37841;SDS011;23682;53.508;10.476;2022-09-23T07:48:40;3.20;;;1.10;;
37841;SDS011;23682;53.508;10.476;2022-09-23T07:51:19;3.33;;;1.20;;
37841;SDS011;23682;53.508;10.476;2022-09-23T07:53:47;0.70;;;0.70;;
37841;SDS011;23682;53.508;10.476;2022-09-23T07:56:17;1.88;;;1.10;;
37841;SDS011;23682;53.508;10.476;2022-09-23T07:58:48;2.08;;;1.20;;
37841;SDS011;23682;53.508;10.476;2022-09-23T08:01:26;2.38;;;1.05;;
37841;SDS011;23682;53.508;10.476;2022-09-23T08:03:55;1.17;;;1.00;;
37841;SDS011;23682;53.508;10.476;2022-09-23T08:06:23;1.73;;;1.20;;
37841;SDS011;23682;53.508;10.476;2022-09-23T08:08:50;1.75;;;1.20;;
37841;SDS011;23682;53.508;10.476;2022-09-23T08:11:19;2.25;;;1.05;;
37841;SDS011;23682;53.508;10.476;2022-09-23T08:13:46;1.88;;;1.10;;
37841;SDS011;23682;53.508;10.476;2022-09-23T08:16:13;1.45;;;1.10;;
37841;SDS011;23682;53.508;10.476;2022-09-23T08:18:42;1.23;;;0.95;;
37841;SDS011;23682;53.508;10.476;2022-09-23T08:21:11;1.80;;;0.95;;
37841;SDS011;23682;53.508;10.476;2022-09-23T08:23:41;2.97;;;1.05;;
37841;SDS011;23682;53.508;10.476;2022-09-23T08:26:09;1.10;;;1.00;;
37841;SDS011;23682;53.508;10.476;2022-09-23T08:28:46;1.10;;;0.68;;
37841;SDS011;23682;53.508;10.476;2022-09-23T08:31:13;1.80;;;0.90;;
37841;SDS011;23682;53.508;10.476;2022-09-23T08:33:43;1.67;;;1.00;;
37841;SDS011;23682;53.508;10.476;2022-09-23T08:36:10;1.05;;;0.80;;
37841;SDS011;23682;53.508;10.476;2022-09-23T08:38:37;1.20;;;1.00;;
37841;SDS011;23682;53.508;10.476;2022-09-23T08:43:57;3.47;;;1.00;;
37841;SDS011;23682;53.508;10.476;2022-09-23T08:46:36;1.20;;;0.90;;
37841;SDS011;23682;53.508;10.476;2022-09-23T08:49:13;1.38;;;0.95;;
37841;SDS011;23682;53.508;10.476;2022-09-23T08:51:49;1.17;;;0.90;;
37841;SDS011;23682;53.508;10.476;2022-09-23T08:54:20;4.10;;;0.95;;
37841;SDS011;23682;53.508;10.476;2022-09-23T08:56:48;1.10;;;0.93;;
37841;SDS011;23682;53.508;10.476;2022-09-23T08:59:27;1.15;;;1.02;;
37841;SDS011;23682;53.508;10.476;2022-09-23T09:02:05;1.25;;;1.00;;
37841;SDS011;23682;53.508;10.476;2022-09-23T09:04:46;0.95;;;0.80;;
37841;SDS011;23682;53.508;10.476;2022-09-23T09:07:36;2.92;;;1.00;;
37841;SDS011;23682;53.508;10.476;2022-09-23T09:10:10;1.83;;;0.90;;
37841;SDS011;23682;53.508;10.476;2022-09-23T09:12:45;2.15;;;1.00;;
37841;SDS011;23682;53.508;10.476;2022-09-23T09:15:21;1.08;;;0.80;;
37841;SDS011;23682;53.508;10.476;2022-09-23T09:25:58;0.95;;;0.90;;
37841;SDS011;23682;53.508;10.476;2022-09-23T09:28:37;0.80;;;0.80;;
37841;SDS011;23682;53.508;10.476;2022-09-23T09:39:13;1.10;;;1.00;;
37841;SDS011;23682;53.508;10.476;2022-09-23T09:41:43;2.05;;;0.90;;
37841;SDS011;23682;53.508;10.476;2022-09-23T09:50:18;1.00;;;0.80;;
37841;SDS011;23682;53.508;10.476;2022-09-23T10:01:25;1.17;;;1.00;;
37841;SDS011;23682;53.508;10.476;2022-09-23T10:03:55;1.88;;;0.90;;
37841;SDS011;23682;53.508;10.476;2022-09-23T10:06:32;1.25;;;0.82;;
37841;SDS011;23682;53.508;10.476;2022-09-23T10:09:03;2.50;;;0.80;;
37841;SDS011;23682;53.508;10.476;2022-09-23T10:11:36;1.85;;;1.00;;
37841;SDS011;23682;53.508;10.476;2022-09-23T10:16:44;0.73;;;0.70;;
37841;SDS011;23682;53.508;10.476;2022-09-23T10:19:24;4.50;;;0.93;;
37841;SDS011;23682;53.508;10.476;2022-09-23T10:21:54;2.22;;;0.82;;
37841;SDS011;23682;53.508;10.476;2022-09-23T10:24:26;0.82;;;0.75;;
37841;SDS011;23682;53.508;10.476;2022-09-23T10:26:56;1.50;;;0.60;;
37841;SDS011;23682;53.508;10.476;2022-09-23T10:29:36;2.42;;;0.73;;
37841;SDS011;23682;53.508;10.476;2022-09-23T10:35:12;1.20;;;0.80;;
37841;SDS011;23682;53.508;10.476;2022-09-23T10:37:46;0.80;;;0.65;;
37841;SDS011;23682;53.508;10.476;2022-09-23T10:49:26;0.63;;;0.63;;
37841;SDS011;23682;53.508;10.476;2022-09-23T11:00:50;0.70;;;0.70;;
37841;SDS011;23682;53.508;10.476;2022-09-23T11:06:28;1.50;;;0.82;;
37841;SDS011;23682;53.508;10.476;2022-09-23T11:12:05;1.27;;;0.50;;
37841;SDS011;23682;53.508;10.476;2022-09-23T11:20:40;2.20;;;0.88;;
37841;SDS011;23682;53.508;10.476;2022-09-23T11:38:18;1.40;;;0.77;;
37841;SDS011;23682;53.508;10.476;2022-09-23T11:40:58;1.05;;;0.57;;
37841;SDS011;23682;53.508;10.476;2022-09-23T11:43:29;0.77;;;0.52;;
37841;SDS011;23682;53.508;10.476;2022-09-23T11:46:08;2.28;;;0.85;;
37841;SDS011;23682;53.508;10.476;2022-09-23T11:49:19;2.38;;;0.60;;
37841;SDS011;23682;53.508;10.476;2022-09-23T11:52:09;0.85;;;0.60;;
37841;SDS011;23682;53.508;10.476;2022-09-23T11:54:44;1.52;;;0.57;;
37841;SDS011;23682;53.508;10.476;2022-09-23T12:00:21;0.60;;;0.60;;
37841;SDS011;23682;53.508;10.476;2022-09-23T12:06:11;1.13;;;0.63;;
37841;SDS011;23682;53.508;10.476;2022-09-23T12:08:43;0.85;;;0.50;;
37841;SDS011;23682;53.508;10.476;2022-09-23T12:16:56;3.33;;;0.60;;
37841;SDS011;23682;53.508;10.476;2022-09-23T12:25:07;0.60;;;0.50;;
37841;SDS011;23682;53.508;10.476;2022-09-23T12:27:42;1.02;;;0.50;;
37841;SDS011;23682;53.508;10.476;2022-09-23T12:30:20;0.52;;;0.50;;
37841;SDS011;23682;53.508;10.476;2022-09-23T12:33:05;2.33;;;0.50;;
37841;SDS011;23682;53.508;10.476;2022-09-23T12:35:44;1.05;;;0.70;;
37841;SDS011;23682;53.508;10.476;2022-09-23T12:38:12;2.20;;;0.70;;
37841;SDS011;23682;53.508;10.476;2022-09-23T12:40:46;1.20;;;0.52;;
37841;SDS011;23682;53.508;10.476;2022-09-23T12:43:18;1.02;;;0.60;;
37841;SDS011;23682;53.508;10.476;2022-09-23T12:51:14;1.05;;;0.50;;
37841;SDS011;23682;53.508;10.476;2022-09-23T12:56:14;1.63;;;0.73;;
37841;SDS011;23682;53.508;10.476;2022-09-23T13:03:48;0.85;;;0.50;;
37841;SDS011;23682;53.508;10.476;2022-09-23T13:06:46;0.68;;;0.60;;
37841;SDS011;23682;53.508;10.476;2022-09-23T13:09:40;0.68;;;0.52;;
37841;SDS011;23682;53.508;10.476;2022-09-23T13:12:17;1.02;;;0.93;;
37841;SDS011;23682;53.508;10.476;2022-09-23T13:14:48;1.85;;;0.70;;
37841;SDS011;23682;53.508;10.476;2022-09-23T13:17:27;0.70;;;0.70;;
37841;SDS011;23682;53.508;10.476;2022-09-23T13:19:58;0.85;;;0.60;;
37841;SDS011;23682;53.508;10.476;2022-09-23T13:25:16;1.27;;;0.77;;
37841;SDS011;23682;53.508;10.476;2022-09-23T13:27:48;2.05;;;0.57;;
37841;SDS011;23682;53.508;10.476;2022-09-23T13:30:21;1.00;;;0.60;;
37841;SDS011;23682;53.508;10.476;2022-09-23T13:33:04;0.60;;;0.60;;
37841;SDS011;23682;53.508;10.476;2022-09-23T13:35:37;1.83;;;0.60;;
37841;SDS011;23682;53.508;10.476;2022-09-23T13:38:26;1.30;;;0.77;;
37841;SDS011;23682;53.508;10.476;2022-09-23T13:40:56;0.55;;;0.55;;
37841;SDS011;23682;53.508;10.476;2022-09-23T13:43:27;0.73;;;0.63;;
37841;SDS011;23682;53.508;10.476;2022-09-23T13:46:11;0.70;;;0.60;;
37841;SDS011;23682;53.508;10.476;2022-09-23T13:48:45;1.00;;;0.88;;
37841;SDS011;23682;53.508;10.476;2022-09-23T13:51:32;0.90;;;0.60;;
37841;SDS011;23682;53.508;10.476;2022-09-23T13:54:01;1.45;;;0.63;;
37841;SDS011;23682;53.508;10.476;2022-09-23T13:56:32;0.70;;;0.70;;
37841;SDS011;23682;53.508;10.476;2022-09-23T14:02:01;0.70;;;0.60;;
37841;SDS011;23682;53.508;10.476;2022-09-23T14:04:38;1.17;;;0.85;;
37841;SDS011;23682;53.508;10.476;2022-09-23T14:07:05;1.33;;;0.60;;
37841;SDS011;23682;53.508;10.476;2022-09-23T14:09:34;1.00;;;0.60;;
37841;SDS011;23682;53.508;10.476;2022-09-23T14:12:06;1.00;;;0.68;;
37841;SDS011;23682;53.508;10.476;2022-09-23T14:14:36;2.75;;;1.02;;
37841;SDS011;23682;53.508;10.476;2022-09-23T14:17:05;0.85;;;0.80;;
37841;SDS011;23682;53.508;10.476;2022-09-23T14:19:42;0.50;;;0.50;;
37841;SDS011;23682;53.508;10.476;2022-09-23T14:22:23;1.00;;;0.90;;
37841;SDS011;23682;53.508;10.476;2022-09-23T14:24:51;0.88;;;0.88;;
37841;SDS011;23682;53.508;10.476;2022-09-23T14:29:58;1.35;;;0.80;;
37841;SDS011;23682;53.508;10.476;2022-09-23T14:32:28;0.88;;;0.80;;
37841;SDS011;23682;53.508;10.476;2022-09-23T14:37:38;1.45;;;0.85;;
37841;SDS011;23682;53.508;10.476;2022-09-23T14:42:58;2.28;;;0.80;;
37841;SDS011;23682;53.508;10.476;2022-09-23T14:45:49;3.40;;;0.80;;
37841;SDS011;23682;53.508;10.476;2022-09-23T14:48:22;2.25;;;0.82;;
37841;SDS011;23682;53.508;10.476;2022-09-23T14:50:55;0.70;;;0.60;;
37841;SDS011;23682;53.508;10.476;2022-09-23T14:56:19;1.30;;;0.80;;
37841;SDS011;23682;53.508;10.476;2022-09-23T15:01:37;1.55;;;0.82;;
37841;SDS011;23682;53.508;10.476;2022-09-23T15:04:09;1.58;;;0.93;;
37841;SDS011;23682;53.508;10.476;2022-09-23T15:06:54;1.10;;;0.95;;
37841;SDS011;23682;53.508;10.476;2022-09-23T15:09:42;0.77;;;0.70;;
37841;SDS011;23682;53.508;10.476;2022-09-23T15:12:11;0.90;;;0.70;;
37841;SDS011;23682;53.508;10.476;2022-09-23T15:14:44;0.93;;;0.70;;
37841;SDS011;23682;53.508;10.476;2022-09-23T15:19:55;1.02;;;0.77;;
37841;SDS011;23682;53.508;10.476;2022-09-23T15:22:30;0.80;;;0.73;;
37841;SDS011;23682;53.508;10.476;2022-09-23T15:25:07;1.58;;;0.93;;
37841;SDS011;23682;53.508;10.476;2022-09-23T15:30:37;1.40;;;0.85;;
37841;SDS011;23682;53.508;10.476;2022-09-23T15:33:09;1.40;;;0.85;;
37841;SDS011;23682;53.508;10.476;2022-09-23T15:35:55;1.98;;;0.90;;
37841;SDS011;23682;53.508;10.476;2022-09-23T15:38:27;0.60;;;0.60;;
37841;SDS011;23682;53.508;10.476;2022-09-23T15:40:54;0.90;;;0.80;;
37841;SDS011;23682;53.508;10.476;2022-09-23T15:43:23;1.90;;;0.88;;
37841;SDS011;23682;53.508;10.476;2022-09-23T15:45:53;2.20;;;1.00;;
37841;SDS011;23682;53.508;10.476;2022-09-23T15:48:34;2.15;;;1.10;;
37841;SDS011;23682;53.508;10.476;2022-09-23T15:51:12;2.88;;;0.70;;
37841;SDS011;23682;53.508;10.476;2022-09-23T15:53:40;0.90;;;0.80;;
37841;SDS011;23682;53.508;10.476;2022-09-23T15:56:08;2.33;;;1.10;;
37841;SDS011;23682;53.508;10.476;2022-09-23T15:58:35;0.70;;;0.70;;
37841;SDS011;23682;53.508;10.476;2022-09-23T16:01:04;1.17;;;0.63;;
37841;SDS011;23682;53.508;10.476;2022-09-23T16:03:32;0.82;;;0.80;;
37841;SDS011;23682;53.508;10.476;2022-09-23T16:06:00;1.35;;;0.80;;
37841;SDS011;23682;53.508;10.476;2022-09-23T16:08:29;1.92;;;0.80;;
37841;SDS011;23682;53.508;10.476;2022-09-23T16:10:58;2.28;;;0.80;;
37841;SDS011;23682;53.508;10.476;2022-09-23T16:13:25;1.80;;;0.82;;
37841;SDS011;23682;53.508;10.476;2022-09-23T16:15:54;1.52;;;1.20;;
37841;SDS011;23682;53.508;10.476;2022-09-23T16:18:22;1.55;;;1.00;;
37841;SDS011;23682;53.508;10.476;2022-09-23T16:20:52;1.70;;;0.90;;
37841;SDS011;23682;53.508;10.476;2022-09-23T16:23:30;1.58;;;0.98;;
37841;SDS011;23682;53.508;10.476;2022-09-23T16:28:43;0.90;;;0.70;;
37841;SDS011;23682;53.508;10.476;2022-09-23T16:31:12;1.48;;;0.90;;
37841;SDS011;23682;53.508;10.476;2022-09-23T16:33:47;4.32;;;1.00;;
37841;SDS011;23682;53.508;10.476;2022-09-23T16:38:55;1.20;;;1.10;;
37841;SDS011;23682;53.508;10.476;2022-09-23T16:41:35;2.92;;;1.00;;
37841;SDS011;23682;53.508;10.476;2022-09-23T16:44:03;1.05;;;0.70;;
37841;SDS011;23682;53.508;10.476;2022-09-23T16:46:33;0.82;;;0.68;;
37841;SDS011;23682;53.508;10.476;2022-09-23T16:53:19;0.95;;;0.85;;
37841;SDS011;23682;53.508;10.476;2022-09-23T16:55:46;1.13;;;0.80;;
37841;SDS011;23682;53.508;10.476;2022-09-23T16:58:13;1.75;;;1.10;;
37841;SDS011;23682;53.508;10.476;2022-09-23T17:00:40;1.40;;;1.02;;
37841;SDS011;23682;53.508;10.476;2022-09-23T17:03:26;3.45;;;1.50;;
37841;SDS011;23682;53.508;10.476;2022-09-23T17:06:09;1.75;;;1.05;;
37841;SDS011;23682;53.508;10.476;2022-09-23T17:08:39;1.45;;;0.95;;
37841;SDS011;23682;53.508;10.476;2022-09-23T17:11:08;1.67;;;1.20;;
37841;SDS011;23682;53.508;10.476;2022-09-23T17:13:40;2.17;;;1.27;;
37841;SDS011;23682;53.508;10.476;2022-09-23T17:16:11;2.50;;;1.10;;
37841;SDS011;23682;53.508;10.476;2022-09-23T17:18:52;1.95;;;1.23;;
37841;SDS011;23682;53.508;10.476;2022-09-23T17:21:41;1.80;;;1.30;;
37841;SDS011;23682;53.508;10.476;2022-09-23T17:24:11;1.65;;;1.25;;
37841;SDS011;23682;53.508;10.476;2022-09-23T17:47:09;2.50;;;1.42;;
37841;SDS011;23682;53.508;10.476;2022-09-23T17:53:57;4.32;;;1.35;;
37841;SDS011;23682;53.508;10.476;2022-09-23T18:08:30;3.38;;;2.05;;
37841;SDS011;23682;53.508;10.476;2022-09-23T18:10:57;4.60;;;2.00;;
37841;SDS011;23682;53.508;10.476;2022-09-23T18:13:24;2.67;;;1.92;;
37841;SDS011;23682;53.508;10.476;2022-09-23T18:15:51;4.10;;;2.00;;
37841;SDS011;23682;53.508;10.476;2022-09-23T18:18:20;4.63;;;2.13;;
37841;SDS011;23682;53.508;10.476;2022-09-23T18:20:47;6.45;;;2.03;;
37841;SDS011;23682;53.508;10.476;2022-09-23T18:23:14;7.20;;;2.70;;
37841;SDS011;23682;53.508;10.476;2022-09-23T18:25:41;3.22;;;2.22;;
37841;SDS011;23682;53.508;10.476;2022-09-23T18:28:08;3.88;;;2.00;;
37841;SDS011;23682;53.508;10.476;2022-09-23T18:30:35;3.72;;;2.60;;
37841;SDS011;23682;53.508;10.476;2022-09-23T18:33:02;4.63;;;2.63;;
37841;SDS011;23682;53.508;10.476;2022-09-23T18:35:29;4.30;;;2.53;;
37841;SDS011;23682;53.508;10.476;2022-09-23T18:37:56;5.63;;;2.20;;
37841;SDS011;23682;53.508;10.476;2022-09-23T18:40:23;5.03;;;2.60;;
37841;SDS011;23682;53.508;10.476;2022-09-23T18:42:50;3.78;;;2.40;;
37841;SDS011;23682;53.508;10.476;2022-09-23T18:45:17;4.90;;;2.38;;
37841;SDS011;23682;53.508;10.476;2022-09-23T18:47:43;4.47;;;2.53;;
37841;SDS011;23682;53.508;10.476;2022-09-23T18:50:29;5.18;;;2.60;;
37841;SDS011;23682;53.508;10.476;2022-09-23T18:55:34;6.78;;;2.70;;
37841;SDS011;23682;53.508;10.476;2022-09-23T18:58:01;4.43;;;2.60;;
37841;SDS011;23682;53.508;10.476;2022-09-23T19:00:28;4.15;;;2.70;;
37841;SDS011;23682;53.508;10.476;2022-09-23T19:02:55;4.45;;;2.75;;
37841;SDS011;23682;53.508;10.476;2022-09-23T19:05:23;5.47;;;2.75;;
37841;SDS011;23682;53.508;10.476;2022-09-23T19:07:50;6.60;;;2.90;;